sensor_id;sensor_type;location;lat;lon;timestamp;pressure;altitude;pressure_sealevel;temperature;humidity
45050;BME280;61798;48.048;-1.928;2022-09-30T00:00:16;100128.22;;;5.71;93.89
45050;BME280;61798;48.048;-1.928;2022-09-30T00:02:22;100167.16;;;5.96;93.42
45050;BME280;61798;48.048;-1.928;2022-09-30T00:04:28;100143.31;;;5.79;93.48
45050;BME280;61798;48.048;-1.928;2022-09-30T00:06:34;100185.75;;;6.13;94.15
45050;BME280;61798;48.048;-1.928;2022-09-30T00:08:41;100144.97;;;5.80;94.26
45050;BME280;61798;48.048;-1.928;2022-09-30T00:10:46;100154.78;;;5.80;93.70
45050;BME280;61798;48.048;-1.928;2022-09-30T00:12:53;100160.53;;;5.92;93.55
45050;BME280;61798;48.048;-1.928;2022-09-30T00:14:59;100174.06;;;6.14;93.69
45050;BME280;61798;48.048;-1.928;2022-09-30T00:17:05;100191.53;;;6.17;93.04
45050;BME280;61798;48.048;-1.928;2022-09-30T00:19:11;100210.41;;;6.30;93.45
45050;BME280;61798;48.048;-1.928;2022-09-30T00:21:17;100183.41;;;6.10;92.44
45050;BME280;61798;48.048;-1.928;2022-09-30T00:23:23;100190.31;;;6.28;92.92
45050;BME280;61798;48.048;-1.928;2022-09-30T00:25:29;100138.88;;;6.03;91.53
45050;BME280;61798;48.048;-1.928;2022-09-30T00:27:35;100213.16;;;6.69;91.52
45050;BME280;61798;48.048;-1.928;2022-09-30T00:29:41;100229.66;;;6.41;92.12
45050;BME280;61798;48.048;-1.928;2022-09-30T00:31:47;100195.22;;;6.39;92.71
45050;BME280;61798;48.048;-1.928;2022-09-30T00:33:53;100188.09;;;5.99;92.19
45050;BME280;61798;48.048;-1.928;2022-09-30T00:36:11;100198.44;;;5.86;93.60
45050;BME280;61798;48.048;-1.928;2022-09-30T00:38:17;100225.09;;;6.50;93.84
45050;BME280;61798;48.048;-1.928;2022-09-30T00:40:23;100199.72;;;6.62;91.33
45050;BME280;61798;48.048;-1.928;2022-09-30T00:42:29;100209.09;;;6.97;91.17
45050;BME280;61798;48.048;-1.928;2022-09-30T00:46:45;100187.47;;;6.53;91.18
45050;BME280;61798;48.048;-1.928;2022-09-30T00:48:52;100228.31;;;6.69;91.03
45050;BME280;61798;48.048;-1.928;2022-09-30T00:51:00;100194.63;;;6.29;92.39
45050;BME280;61798;48.048;-1.928;2022-09-30T00:53:38;100242.59;;;6.76;91.69
45050;BME280;61798;48.048;-1.928;2022-09-30T00:58:06;100221.94;;;7.17;89.82
45050;BME280;61798;48.048;-1.928;2022-09-30T01:00:13;100239.41;;;7.19;89.37
45050;BME280;61798;48.048;-1.928;2022-09-30T01:02:19;100226.53;;;6.84;90.38
45050;BME280;61798;48.048;-1.928;2022-09-30T01:04:28;100240.84;;;6.60;91.70
45050;BME280;61798;48.048;-1.928;2022-09-30T01:06:36;100230.06;;;6.53;92.39
45050;BME280;61798;48.048;-1.928;2022-09-30T01:08:42;100239.25;;;6.74;92.53
45050;BME280;61798;48.048;-1.928;2022-09-30T01:10:50;100229.63;;;6.96;91.07
45050;BME280;61798;48.048;-1.928;2022-09-30T01:12:56;100236.09;;;6.94;90.97
45050;BME280;61798;48.048;-1.928;2022-09-30T01:15:03;100211.97;;;6.72;90.83
45050;BME280;61798;48.048;-1.928;2022-09-30T01:17:16;100246.00;;;6.61;91.59
45050;BME280;61798;48.048;-1.928;2022-09-30T01:22:12;100265.81;;;7.06;91.23
45050;BME280;61798;48.048;-1.928;2022-09-30T01:33:43;100255.75;;;6.93;91.06
45050;BME280;61798;48.048;-1.928;2022-09-30T01:36:17;100254.81;;;6.62;92.25
45050;BME280;61798;48.048;-1.928;2022-09-30T01:41:05;100246.19;;;6.83;91.74
45050;BME280;61798;48.048;-1.928;2022-09-30T01:43:25;100253.94;;;6.70;92.16
45050;BME280;61798;48.048;-1.928;2022-09-30T01:45:45;100208.25;;;6.26;92.07
45050;BME280;61798;48.048;-1.928;2022-09-30T01:48:20;100268.41;;;6.43;92.84
45050;BME280;61798;48.048;-1.928;2022-09-30T01:50:47;100252.34;;;6.60;93.05
45050;BME280;61798;48.048;-1.928;2022-09-30T01:55:35;100248.06;;;6.74;92.75
45050;BME280;61798;48.048;-1.928;2022-09-30T01:58:46;100262.06;;;7.00;91.67
45050;BME280;61798;48.048;-1.928;2022-09-30T02:00:36;100258.13;;;7.11;90.47
45050;BME280;61798;48.048;-1.928;2022-09-30T02:02:55;100253.44;;;6.90;90.96
45050;BME280;61798;48.048;-1.928;2022-09-30T02:05:19;100264.53;;;6.78;91.49
45050;BME280;61798;48.048;-1.928;2022-09-30T02:07:40;100268.75;;;6.96;91.24
45050;BME280;61798;48.048;-1.928;2022-09-30T02:09:53;100271.41;;;6.96;91.49
45050;BME280;61798;48.048;-1.928;2022-09-30T02:12:04;100277.69;;;7.03;90.99
45050;BME280;61798;48.048;-1.928;2022-09-30T02:14:24;100267.06;;;6.95;90.97
45050;BME280;61798;48.048;-1.928;2022-09-30T02:16:37;100268.59;;;7.13;90.79
45050;BME280;61798;48.048;-1.928;2022-09-30T02:18:47;100268.69;;;7.04;91.03
45050;BME280;61798;48.048;-1.928;2022-09-30T02:20:58;100265.47;;;7.09;90.94
45050;BME280;61798;48.048;-1.928;2022-09-30T02:25:21;100253.63;;;7.12;90.34
45050;BME280;61798;48.048;-1.928;2022-09-30T02:27:33;100237.31;;;6.91;90.88
45050;BME280;61798;48.048;-1.928;2022-09-30T02:29:51;100264.09;;;7.13;91.14
45050;BME280;61798;48.048;-1.928;2022-09-30T02:32:06;100276.59;;;7.13;90.75
45050;BME280;61798;48.048;-1.928;2022-09-30T02:34:26;100263.69;;;7.01;90.30
45050;BME280;61798;48.048;-1.928;2022-09-30T02:36:43;100275.38;;;7.00;90.71
45050;BME280;61798;48.048;-1.928;2022-09-30T02:39:00;100281.34;;;7.02;90.54
45050;BME280;61798;48.048;-1.928;2022-09-30T02:41:10;100283.94;;;7.11;90.81
45050;BME280;61798;48.048;-1.928;2022-09-30T02:43:18;100272.28;;;7.12;90.30
45050;BME280;61798;48.048;-1.928;2022-09-30T02:45:26;100281.41;;;6.94;91.41
45050;BME280;61798;48.048;-1.928;2022-09-30T02:50:07;100299.16;;;7.25;90.57
45050;BME280;61798;48.048;-1.928;2022-09-30T02:54:39;100286.66;;;7.02;91.54
45050;BME280;61798;48.048;-1.928;2022-09-30T02:56:56;100255.19;;;6.82;91.31
45050;BME280;61798;48.048;-1.928;2022-09-30T02:59:03;100303.00;;;6.99;92.09
45050;BME280;61798;48.048;-1.928;2022-09-30T03:01:14;100294.03;;;7.00;91.15
45050;BME280;61798;48.048;-1.928;2022-09-30T03:03:25;100300.47;;;7.06;90.96
45050;BME280;61798;48.048;-1.928;2022-09-30T03:05:32;100291.06;;;6.95;91.77
45050;BME280;61798;48.048;-1.928;2022-09-30T03:07:39;100303.78;;;7.08;91.37
45050;BME280;61798;48.048;-1.928;2022-09-30T03:09:45;100285.56;;;6.96;92.20
45050;BME280;61798;48.048;-1.928;2022-09-30T03:11:54;100280.97;;;7.05;91.14
45050;BME280;61798;48.048;-1.928;2022-09-30T03:14:20;100279.25;;;6.89;91.45
45050;BME280;61798;48.048;-1.928;2022-09-30T03:16:51;100295.91;;;7.15;91.49
45050;BME280;61798;48.048;-1.928;2022-09-30T03:19:26;100293.25;;;6.91;91.22
45050;BME280;61798;48.048;-1.928;2022-09-30T03:22:11;100303.22;;;7.13;90.64
45050;BME280;61798;48.048;-1.928;2022-09-30T03:24:53;100309.28;;;7.30;90.43
45050;BME280;61798;48.048;-1.928;2022-09-30T03:29:25;100316.44;;;7.06;90.81
45050;BME280;61798;48.048;-1.928;2022-09-30T03:31:49;100316.69;;;6.96;91.22
45050;BME280;61798;48.048;-1.928;2022-09-30T03:34:14;100321.47;;;7.01;91.49
45050;BME280;61798;48.048;-1.928;2022-09-30T03:36:36;100304.72;;;6.92;91.61
45050;BME280;61798;48.048;-1.928;2022-09-30T03:41:40;100313.38;;;7.17;90.33
45050;BME280;61798;48.048;-1.928;2022-09-30T03:43:59;100322.25;;;7.09;90.56
45050;BME280;61798;48.048;-1.928;2022-09-30T03:46:19;100316.03;;;7.17;89.64
45050;BME280;61798;48.048;-1.928;2022-09-30T03:48:28;100316.38;;;7.14;90.19
45050;BME280;61798;48.048;-1.928;2022-09-30T03:50:36;100315.88;;;6.95;90.85
45050;BME280;61798;48.048;-1.928;2022-09-30T03:52:43;100302.91;;;6.92;91.02
45050;BME280;61798;48.048;-1.928;2022-09-30T03:54:51;100332.53;;;7.13;90.67
45050;BME280;61798;48.048;-1.928;2022-09-30T03:56:58;100315.03;;;6.95;91.46
45050;BME280;61798;48.048;-1.928;2022-09-30T03:59:15;100297.78;;;6.82;91.45
45050;BME280;61798;48.048;-1.928;2022-09-30T04:01:24;100325.53;;;6.96;91.55
45050;BME280;61798;48.048;-1.928;2022-09-30T04:03:30;100340.25;;;7.07;91.08
45050;BME280;61798;48.048;-1.928;2022-09-30T04:05:36;100313.38;;;6.94;91.32
45050;BME280;61798;48.048;-1.928;2022-09-30T04:07:42;100282.56;;;6.68;91.40
45050;BME280;61798;48.048;-1.928;2022-09-30T04:09:48;100347.53;;;7.14;91.31
45050;BME280;61798;48.048;-1.928;2022-09-30T04:11:54;100328.31;;;7.03;90.78
45050;BME280;61798;48.048;-1.928;2022-09-30T04:14:00;100312.69;;;7.00;91.08
45050;BME280;61798;48.048;-1.928;2022-09-30T04:16:06;100314.16;;;7.03;90.64
45050;BME280;61798;48.048;-1.928;2022-09-30T04:18:12;100340.91;;;7.09;90.85
45050;BME280;61798;48.048;-1.928;2022-09-30T04:20:18;100336.59;;;7.08;91.30
45050;BME280;61798;48.048;-1.928;2022-09-30T04:22:24;100288.44;;;6.86;91.09
45050;BME280;61798;48.048;-1.928;2022-09-30T04:24:30;100316.28;;;6.84;91.50
45050;BME280;61798;48.048;-1.928;2022-09-30T04:26:36;100335.47;;;7.26;90.90
45050;BME280;61798;48.048;-1.928;2022-09-30T04:28:42;100326.22;;;7.14;90.81
45050;BME280;61798;48.048;-1.928;2022-09-30T04:30:48;100338.84;;;7.20;91.20
45050;BME280;61798;48.048;-1.928;2022-09-30T04:32:54;100305.19;;;7.19;90.34
45050;BME280;61798;48.048;-1.928;2022-09-30T04:35:00;100307.25;;;6.85;90.76
45050;BME280;61798;48.048;-1.928;2022-09-30T04:37:06;100305.25;;;6.87;91.56
45050;BME280;61798;48.048;-1.928;2022-09-30T04:39:12;100308.03;;;6.94;90.95
45050;BME280;61798;48.048;-1.928;2022-09-30T04:41:19;100308.25;;;6.60;92.04
45050;BME280;61798;48.048;-1.928;2022-09-30T04:43:25;100323.91;;;6.55;92.36
45050;BME280;61798;48.048;-1.928;2022-09-30T04:45:31;100306.97;;;6.48;92.21
45050;BME280;61798;48.048;-1.928;2022-09-30T04:47:37;100316.25;;;6.03;92.71
45050;BME280;61798;48.048;-1.928;2022-09-30T04:49:43;100304.13;;;6.00;93.78
45050;BME280;61798;48.048;-1.928;2022-09-30T04:51:50;100302.13;;;6.02;94.48
45050;BME280;61798;48.048;-1.928;2022-09-30T04:54:00;100299.09;;;6.22;93.29
45050;BME280;61798;48.048;-1.928;2022-09-30T04:56:10;100267.97;;;5.66;93.11
45050;BME280;61798;48.048;-1.928;2022-09-30T04:58:17;100316.84;;;5.65;93.78
45050;BME280;61798;48.048;-1.928;2022-09-30T05:00:24;100306.56;;;5.53;94.90
45050;BME280;61798;48.048;-1.928;2022-09-30T05:02:31;100284.84;;;5.98;94.34
45050;BME280;61798;48.048;-1.928;2022-09-30T05:04:37;100294.16;;;6.11;93.52
45050;BME280;61798;48.048;-1.928;2022-09-30T05:06:43;100321.16;;;6.40;92.40
45050;BME280;61798;48.048;-1.928;2022-09-30T05:08:51;100350.56;;;6.47;91.98
45050;BME280;61798;48.048;-1.928;2022-09-30T05:11:04;100328.31;;;6.39;92.15
45050;BME280;61798;48.048;-1.928;2022-09-30T05:13:14;100321.16;;;5.66;91.58
45050;BME280;61798;48.048;-1.928;2022-09-30T05:15:21;100362.19;;;5.88;93.80
45050;BME280;61798;48.048;-1.928;2022-09-30T05:17:29;100367.00;;;5.51;93.24
45050;BME280;61798;48.048;-1.928;2022-09-30T05:19:37;100333.75;;;5.89;94.29
45050;BME280;61798;48.048;-1.928;2022-09-30T05:21:44;100372.72;;;6.39;92.37
45050;BME280;61798;48.048;-1.928;2022-09-30T05:23:53;100372.69;;;6.47;91.42
45050;BME280;61798;48.048;-1.928;2022-09-30T05:26:00;100372.09;;;6.28;91.49
45050;BME280;61798;48.048;-1.928;2022-09-30T05:28:08;100390.75;;;6.11;91.88
45050;BME280;61798;48.048;-1.928;2022-09-30T05:30:15;100375.41;;;6.30;92.27
45050;BME280;61798;48.048;-1.928;2022-09-30T05:32:21;100394.41;;;6.68;90.74
45050;BME280;61798;48.048;-1.928;2022-09-30T05:34:28;100367.47;;;6.62;89.54
45050;BME280;61798;48.048;-1.928;2022-09-30T05:36:36;100401.34;;;6.77;90.06
45050;BME280;61798;48.048;-1.928;2022-09-30T05:38:43;100385.50;;;6.52;90.62
45050;BME280;61798;48.048;-1.928;2022-09-30T05:40:51;100397.16;;;6.51;90.93
45050;BME280;61798;48.048;-1.928;2022-09-30T05:42:59;100382.38;;;6.40;90.89
45050;BME280;61798;48.048;-1.928;2022-09-30T05:45:05;100362.97;;;6.14;91.22
45050;BME280;61798;48.048;-1.928;2022-09-30T05:47:11;100412.53;;;6.23;92.01
45050;BME280;61798;48.048;-1.928;2022-09-30T05:49:17;100401.66;;;6.42;91.37
45050;BME280;61798;48.048;-1.928;2022-09-30T05:51:23;100402.81;;;6.48;91.65
45050;BME280;61798;48.048;-1.928;2022-09-30T05:53:30;100419.06;;;6.61;91.11
45050;BME280;61798;48.048;-1.928;2022-09-30T05:55:38;100391.34;;;6.47;90.82
45050;BME280;61798;48.048;-1.928;2022-09-30T05:57:50;100364.75;;;6.30;90.86
45050;BME280;61798;48.048;-1.928;2022-09-30T05:59:56;100377.53;;;6.43;90.79
45050;BME280;61798;48.048;-1.928;2022-09-30T06:02:03;100393.13;;;6.55;90.30
45050;BME280;61798;48.048;-1.928;2022-09-30T06:04:17;100335.88;;;6.10;90.42
45050;BME280;61798;48.048;-1.928;2022-09-30T06:06:26;100347.19;;;6.21;90.61
45050;BME280;61798;48.048;-1.928;2022-09-30T06:08:35;100379.00;;;6.54;90.13
45050;BME280;61798;48.048;-1.928;2022-09-30T06:10:44;100382.31;;;6.57;90.00
45050;BME280;61798;48.048;-1.928;2022-09-30T06:12:54;100393.09;;;6.63;90.07
45050;BME280;61798;48.048;-1.928;2022-09-30T06:15:02;100394.97;;;6.54;90.21
45050;BME280;61798;48.048;-1.928;2022-09-30T06:17:14;100402.28;;;6.61;90.26
45050;BME280;61798;48.048;-1.928;2022-09-30T06:19:26;100411.94;;;6.53;90.69
45050;BME280;61798;48.048;-1.928;2022-09-30T06:21:38;100388.22;;;6.27;91.49
45050;BME280;61798;48.048;-1.928;2022-09-30T06:23:52;100363.66;;;6.16;90.81
45050;BME280;61798;48.048;-1.928;2022-09-30T06:26:03;100388.75;;;6.13;92.14
45050;BME280;61798;48.048;-1.928;2022-09-30T06:28:11;100386.25;;;6.03;92.18
45050;BME280;61798;48.048;-1.928;2022-09-30T06:30:30;100345.06;;;5.57;91.66
45050;BME280;61798;48.048;-1.928;2022-09-30T06:32:38;100357.66;;;5.97;91.51
45050;BME280;61798;48.048;-1.928;2022-09-30T06:34:50;100343.94;;;5.68;91.71
45050;BME280;61798;48.048;-1.928;2022-09-30T06:36:58;100344.06;;;5.92;92.02
45050;BME280;61798;48.048;-1.928;2022-09-30T06:39:09;100396.41;;;6.17;90.94
45050;BME280;61798;48.048;-1.928;2022-09-30T06:41:19;100389.59;;;6.14;91.67
45050;BME280;61798;48.048;-1.928;2022-09-30T06:43:27;100321.25;;;5.89;91.42
45050;BME280;61798;48.048;-1.928;2022-09-30T06:45:35;100390.16;;;6.50;89.96
45050;BME280;61798;48.048;-1.928;2022-09-30T06:47:48;100396.53;;;6.32;91.10
45050;BME280;61798;48.048;-1.928;2022-09-30T06:50:00;100389.25;;;6.17;91.37
45050;BME280;61798;48.048;-1.928;2022-09-30T06:52:11;100360.66;;;6.02;91.65
45050;BME280;61798;48.048;-1.928;2022-09-30T06:54:22;100346.50;;;6.02;91.05
45050;BME280;61798;48.048;-1.928;2022-09-30T06:56:31;100356.31;;;6.01;91.86
45050;BME280;61798;48.048;-1.928;2022-09-30T06:58:41;100349.69;;;5.97;92.21
45050;BME280;61798;48.048;-1.928;2022-09-30T07:01:06;100363.09;;;6.29;91.50
45050;BME280;61798;48.048;-1.928;2022-09-30T07:03:25;100378.59;;;6.66;90.54
45050;BME280;61798;48.048;-1.928;2022-09-30T07:05:36;100327.38;;;6.23;91.04
45050;BME280;61798;48.048;-1.928;2022-09-30T07:07:46;100388.19;;;6.84;90.46
45050;BME280;61798;48.048;-1.928;2022-09-30T07:09:55;100340.84;;;6.62;90.74
45050;BME280;61798;48.048;-1.928;2022-09-30T07:12:13;100368.66;;;6.92;90.21
45050;BME280;61798;48.048;-1.928;2022-09-30T07:14:24;100322.09;;;6.55;90.54
45050;BME280;61798;48.048;-1.928;2022-09-30T07:16:40;100306.59;;;6.59;90.46
45050;BME280;61798;48.048;-1.928;2022-09-30T07:18:51;100308.28;;;6.52;90.94
45050;BME280;61798;48.048;-1.928;2022-09-30T07:20:58;100330.22;;;6.54;90.75
45050;BME280;61798;48.048;-1.928;2022-09-30T07:23:08;100334.88;;;6.60;91.72
45050;BME280;61798;48.048;-1.928;2022-09-30T07:25:18;100345.78;;;6.74;90.85
45050;BME280;61798;48.048;-1.928;2022-09-30T07:27:33;100345.81;;;6.65;91.55
45050;BME280;61798;48.048;-1.928;2022-09-30T07:29:48;100337.34;;;6.62;92.31
45050;BME280;61798;48.048;-1.928;2022-09-30T07:31:58;100346.09;;;6.79;90.93
45050;BME280;61798;48.048;-1.928;2022-09-30T07:34:07;100359.88;;;7.15;89.84
45050;BME280;61798;48.048;-1.928;2022-09-30T07:36:31;100365.91;;;7.08;89.46
45050;BME280;61798;48.048;-1.928;2022-09-30T07:38:48;100372.88;;;7.09;89.53
45050;BME280;61798;48.048;-1.928;2022-09-30T07:41:14;100391.38;;;7.35;90.73
45050;BME280;61798;48.048;-1.928;2022-09-30T07:43:29;100437.59;;;7.74;89.52
45050;BME280;61798;48.048;-1.928;2022-09-30T07:45:47;100371.06;;;7.34;89.75
45050;BME280;61798;48.048;-1.928;2022-09-30T07:47:57;100382.53;;;7.58;90.80
45050;BME280;61798;48.048;-1.928;2022-09-30T07:50:10;100391.78;;;7.70;91.08
45050;BME280;61798;48.048;-1.928;2022-09-30T07:52:26;100374.84;;;7.63;90.61
45050;BME280;61798;48.048;-1.928;2022-09-30T07:54:35;100385.06;;;7.75;90.81
45050;BME280;61798;48.048;-1.928;2022-09-30T07:56:50;100425.44;;;8.10;91.04
45050;BME280;61798;48.048;-1.928;2022-09-30T07:59:05;100365.41;;;7.76;91.17
45050;BME280;61798;48.048;-1.928;2022-09-30T08:01:22;100383.25;;;7.90;91.92
45050;BME280;61798;48.048;-1.928;2022-09-30T08:03:39;100381.22;;;7.92;91.86
45050;BME280;61798;48.048;-1.928;2022-09-30T08:05:49;100384.56;;;7.95;92.45
45050;BME280;61798;48.048;-1.928;2022-09-30T08:07:58;100376.72;;;7.93;91.53
45050;BME280;61798;48.048;-1.928;2022-09-30T08:10:04;100415.44;;;8.28;92.03
45050;BME280;61798;48.048;-1.928;2022-09-30T08:12:11;100369.84;;;8.14;92.91
45050;BME280;61798;48.048;-1.928;2022-09-30T08:14:22;100401.16;;;8.35;92.49
45050;BME280;61798;48.048;-1.928;2022-09-30T08:16:32;100441.41;;;8.64;92.56
45050;BME280;61798;48.048;-1.928;2022-09-30T08:18:40;100389.44;;;8.36;93.16
45050;BME280;61798;48.048;-1.928;2022-09-30T08:20:48;100372.81;;;8.34;93.63
45050;BME280;61798;48.048;-1.928;2022-09-30T08:22:57;100392.16;;;8.67;93.38
45050;BME280;61798;48.048;-1.928;2022-09-30T08:25:03;100393.16;;;8.66;93.64
45050;BME280;61798;48.048;-1.928;2022-09-30T08:27:10;100415.56;;;9.02;93.61
45050;BME280;61798;48.048;-1.928;2022-09-30T08:29:45;100418.19;;;9.17;93.29
45050;BME280;61798;48.048;-1.928;2022-09-30T08:32:37;100373.66;;;9.03;93.84
45050;BME280;61798;48.048;-1.928;2022-09-30T08:34:43;100381.34;;;9.13;93.41
45050;BME280;61798;48.048;-1.928;2022-09-30T08:36:55;100393.13;;;9.40;92.94
45050;BME280;61798;48.048;-1.928;2022-09-30T08:39:05;100458.19;;;9.92;92.41
45050;BME280;61798;48.048;-1.928;2022-09-30T08:47:14;100459.06;;;10.21;92.10
45050;BME280;61798;48.048;-1.928;2022-09-30T08:52:46;100422.81;;;10.25;90.87
45050;BME280;61798;48.048;-1.928;2022-09-30T08:55:06;100432.59;;;10.40;89.35
45050;BME280;61798;48.048;-1.928;2022-09-30T08:57:22;100460.75;;;10.58;89.48
45050;BME280;61798;48.048;-1.928;2022-09-30T08:59:58;100418.91;;;10.57;87.82
45050;BME280;61798;48.048;-1.928;2022-09-30T09:02:30;100440.44;;;10.77;86.65
45050;BME280;61798;48.048;-1.928;2022-09-30T09:04:47;100446.09;;;10.96;86.18
45050;BME280;61798;48.048;-1.928;2022-09-30T09:07:26;100469.22;;;11.04;86.74
45050;BME280;61798;48.048;-1.928;2022-09-30T09:09:50;100474.84;;;11.23;86.14
45050;BME280;61798;48.048;-1.928;2022-09-30T09:14:49;100430.28;;;11.22;85.45
45050;BME280;61798;48.048;-1.928;2022-09-30T09:19:52;100463.56;;;11.48;84.88
45050;BME280;61798;48.048;-1.928;2022-09-30T09:22:02;100462.31;;;11.51;85.22
45050;BME280;61798;48.048;-1.928;2022-09-30T09:24:20;100463.38;;;11.63;83.11
45050;BME280;61798;48.048;-1.928;2022-09-30T09:26:34;100439.22;;;11.57;83.58
45050;BME280;61798;48.048;-1.928;2022-09-30T09:31:32;100459.50;;;11.93;81.82
45050;BME280;61798;48.048;-1.928;2022-09-30T09:33:44;100460.09;;;12.02;82.68
45050;BME280;61798;48.048;-1.928;2022-09-30T09:36:29;100462.59;;;12.18;81.62
45050;BME280;61798;48.048;-1.928;2022-09-30T09:44:29;100466.28;;;12.30;80.18
45050;BME280;61798;48.048;-1.928;2022-09-30T09:46:49;100459.28;;;12.29;80.75
45050;BME280;61798;48.048;-1.928;2022-09-30T09:51:34;100476.00;;;12.45;79.28
45050;BME280;61798;48.048;-1.928;2022-09-30T09:53:56;100476.63;;;12.54;79.00
45050;BME280;61798;48.048;-1.928;2022-09-30T09:56:20;100484.84;;;12.59;79.70
45050;BME280;61798;48.048;-1.928;2022-09-30T09:58:29;100472.25;;;12.53;78.81
45050;BME280;61798;48.048;-1.928;2022-09-30T10:00:43;100475.13;;;12.65;78.16
45050;BME280;61798;48.048;-1.928;2022-09-30T10:03:20;100473.47;;;12.64;78.48
45050;BME280;61798;48.048;-1.928;2022-09-30T10:05:33;100474.09;;;12.66;78.68
45050;BME280;61798;48.048;-1.928;2022-09-30T10:08:17;100481.09;;;12.81;77.63
45050;BME280;61798;48.048;-1.928;2022-09-30T10:10:24;100471.16;;;12.81;78.11
45050;BME280;61798;48.048;-1.928;2022-09-30T10:12:40;100463.28;;;12.79;77.83
45050;BME280;61798;48.048;-1.928;2022-09-30T10:17:31;100477.47;;;13.07;77.76
45050;BME280;61798;48.048;-1.928;2022-09-30T10:20:22;100462.53;;;13.11;78.65
45050;BME280;61798;48.048;-1.928;2022-09-30T10:22:34;100465.63;;;13.15;77.89
45050;BME280;61798;48.048;-1.928;2022-09-30T10:24:49;100463.19;;;13.07;78.09
45050;BME280;61798;48.048;-1.928;2022-09-30T10:26:57;100463.53;;;13.24;78.46
45050;BME280;61798;48.048;-1.928;2022-09-30T10:29:34;100450.19;;;13.36;77.10
45050;BME280;61798;48.048;-1.928;2022-09-30T10:31:44;100447.38;;;13.24;77.50
45050;BME280;61798;48.048;-1.928;2022-09-30T10:34:20;100454.38;;;13.32;77.81
45050;BME280;61798;48.048;-1.928;2022-09-30T10:36:32;100455.69;;;13.16;77.72
45050;BME280;61798;48.048;-1.928;2022-09-30T10:38:56;100459.75;;;13.32;77.67
45050;BME280;61798;48.048;-1.928;2022-09-30T10:41:04;100453.88;;;13.03;77.38
45050;BME280;61798;48.048;-1.928;2022-09-30T10:43:22;100480.50;;;13.25;77.39
45050;BME280;61798;48.048;-1.928;2022-09-30T10:45:35;100453.59;;;13.25;76.44
45050;BME280;61798;48.048;-1.928;2022-09-30T10:47:43;100454.31;;;13.39;76.64
45050;BME280;61798;48.048;-1.928;2022-09-30T10:52:28;100474.06;;;13.58;75.50
45050;BME280;61798;48.048;-1.928;2022-09-30T10:54:52;100455.03;;;13.60;74.17
45050;BME280;61798;48.048;-1.928;2022-09-30T10:57:03;100470.34;;;13.59;74.05
45050;BME280;61798;48.048;-1.928;2022-09-30T10:59:21;100475.16;;;13.50;73.94
45050;BME280;61798;48.048;-1.928;2022-09-30T11:01:37;100470.72;;;13.70;74.43
45050;BME280;61798;48.048;-1.928;2022-09-30T11:03:54;100447.53;;;13.69;75.01
45050;BME280;61798;48.048;-1.928;2022-09-30T11:06:05;100438.94;;;13.46;75.45
45050;BME280;61798;48.048;-1.928;2022-09-30T11:08:29;100470.94;;;13.94;76.96
45050;BME280;61798;48.048;-1.928;2022-09-30T11:10:55;100465.22;;;13.83;76.29
45050;BME280;61798;48.048;-1.928;2022-09-30T11:13:42;100458.84;;;14.03;74.58
45050;BME280;61798;48.048;-1.928;2022-09-30T11:16:05;100452.34;;;13.85;72.51
45050;BME280;61798;48.048;-1.928;2022-09-30T11:18:55;100448.47;;;13.81;73.04
45050;BME280;61798;48.048;-1.928;2022-09-30T11:21:11;100440.88;;;13.71;74.37
45050;BME280;61798;48.048;-1.928;2022-09-30T11:29:26;100444.56;;;13.77;72.54
45050;BME280;61798;48.048;-1.928;2022-09-30T11:32:08;100435.41;;;13.85;73.57
45050;BME280;61798;48.048;-1.928;2022-09-30T11:42:46;100439.81;;;13.98;70.72
45050;BME280;61798;48.048;-1.928;2022-09-30T11:45:15;100442.06;;;14.01;71.83
45050;BME280;61798;48.048;-1.928;2022-09-30T11:48:00;100445.66;;;13.95;70.46
45050;BME280;61798;48.048;-1.928;2022-09-30T11:50:30;100447.63;;;14.06;71.09
45050;BME280;61798;48.048;-1.928;2022-09-30T11:55:56;100444.84;;;14.39;70.57
45050;BME280;61798;48.048;-1.928;2022-09-30T11:58:15;100437.56;;;14.58;68.84
45050;BME280;61798;48.048;-1.928;2022-09-30T12:00:22;100428.66;;;14.58;69.81
45050;BME280;61798;48.048;-1.928;2022-09-30T12:04:41;100414.81;;;14.54;70.64
45050;BME280;61798;48.048;-1.928;2022-09-30T12:07:16;100418.16;;;14.87;68.60
45050;BME280;61798;48.048;-1.928;2022-09-30T12:09:25;100425.72;;;14.97;68.68
45050;BME280;61798;48.048;-1.928;2022-09-30T12:11:47;100426.13;;;15.13;67.64
45050;BME280;61798;48.048;-1.928;2022-09-30T12:13:59;100427.69;;;15.21;67.33
45050;BME280;61798;48.048;-1.928;2022-09-30T12:16:15;100406.63;;;14.99;67.72
45050;BME280;61798;48.048;-1.928;2022-09-30T12:18:36;100403.19;;;14.92;67.75
45050;BME280;61798;48.048;-1.928;2022-09-30T12:21:49;100400.72;;;14.90;68.80
45050;BME280;61798;48.048;-1.928;2022-09-30T12:23:34;100414.84;;;14.85;68.98
45050;BME280;61798;48.048;-1.928;2022-09-30T12:25:50;100410.75;;;15.14;67.99
45050;BME280;61798;48.048;-1.928;2022-09-30T12:28:16;100415.09;;;15.46;67.51
45050;BME280;61798;48.048;-1.928;2022-09-30T12:30:45;100407.25;;;15.56;67.76
45050;BME280;61798;48.048;-1.928;2022-09-30T12:43:17;100400.91;;;15.62;69.93
45050;BME280;61798;48.048;-1.928;2022-09-30T12:48:16;100404.88;;;15.36;68.92
45050;BME280;61798;48.048;-1.928;2022-09-30T12:50:34;100413.31;;;15.39;69.01
45050;BME280;61798;48.048;-1.928;2022-09-30T12:52:47;100420.56;;;15.27;68.30
45050;BME280;61798;48.048;-1.928;2022-09-30T12:55:18;100418.28;;;15.11;68.61
45050;BME280;61798;48.048;-1.928;2022-09-30T12:57:32;100407.38;;;15.18;68.70
45050;BME280;61798;48.048;-1.928;2022-09-30T13:00:16;100395.19;;;15.16;67.53
45050;BME280;61798;48.048;-1.928;2022-09-30T13:02:38;100400.16;;;15.31;68.86
45050;BME280;61798;48.048;-1.928;2022-09-30T13:04:46;100391.88;;;15.14;66.83
45050;BME280;61798;48.048;-1.928;2022-09-30T13:10:15;100396.81;;;15.17;68.05
45050;BME280;61798;48.048;-1.928;2022-09-30T13:12:44;100399.97;;;15.14;68.10
45050;BME280;61798;48.048;-1.928;2022-09-30T13:17:40;100396.38;;;15.20;68.78
45050;BME280;61798;48.048;-1.928;2022-09-30T13:19:49;100396.13;;;15.21;68.77
45050;BME280;61798;48.048;-1.928;2022-09-30T13:27:11;100396.19;;;15.03;70.03